青森 の空港の天気 - METARとTAF

青森空港 ( RJSA / AOJ ) - 青森県青森市
飛行場実況気象(Metar)
観測時間05/25 19:28 JST (05/25 10:28 UTC)
風向・風速北北西 3m/s
視程4500m
天気現象もや
少しの雲 雲底高度 30m
全天の4割程度の雲 雲底高度 60m
全天の8割程度の雲 雲底高度 460m
気温13℃
湿度94%
気圧1007hPa
METARRJSA 251028Z 34005KT 4500 BR FEW001 SCT002 BKN015 13/12 Q1007 RMK 1ST001 3ST002 5CU015 A2974
過去の天気等 Google飛行場航空写真 Wunderground天気予報

過去48時間のMETAR

飛行場予報(TAF)
発表時間: 5/25 19:09 JST (5/25 10:09 UTC)
予報対象時間: 25日19時 JST ~ 26日21時 JST
風向・風速北北東 2m/s
視程6,000m
少しの雲 雲底高度 90m
全天の4割程度の雲 雲底高度 300m
25日19時 JST ~ 25日21時 JST に一時的に
視程1,500m
天気現象もや
少しの雲 雲底高度 30m
全天の8割程度の雲 雲底高度 90m
全天の8割程度の雲 雲底高度 150m
25日21時 JST ~ 25日23時 JST に徐々に
視程1,500m
天気現象もや
少しの雲 雲底高度 30m
全天の8割程度の雲 雲底高度 90m
全天の8割程度の雲 雲底高度 150m
25日23時 JST ~ 26日6時 JST に一時的に
視程500m
天気現象
26日6時 JST ~ 26日9時 JST に徐々に
視程10km以上
天気現象運行に影響にある天気現象が終了
少しの雲 雲底高度 300m
全天の4割程度の雲 雲底高度 610m
TAF AMD RJSA 251009Z 2510/2612 03003KT 6000 FEW003 SCT010
TEMPO 2510/2512 1500 BR FEW001 BKN003 BKN005
BECMG 2512/2514 1500 BR FEW001 BKN003 BKN005
TEMPO 2514/2521 0500 FG
BECMG 2521/2600 9999 NSW FEW010 SCT020
日本の空港のMETAR・TAFへのリンク

RJTT 東京国際空港
RJAA 新東京国際空港
RJBB 関西国際空港
RJOO 大阪空港
RJGG 中部国際空港
RJCC 新千歳空港
RJFF 福岡空港
ROAH 那覇空港


RJEC 旭川空港
RJCH 函館空港
RJCK 釧路空港
RJCM 女満別空港
RJCB 帯広空港
RJSA 青森空港
RJSS 仙台空港
RJSK 秋田空港
RJSF 福島空港
RJAH 茨城空港
RJSN 新潟空港
RJNT 富山空港
RJNK 小松飛行場
RJNS 静岡空港
RJOH 美保飛行場
RJOC 出雲空港
RJOB 岡山空港
RJOA 広島空港
RJOI 岩国飛行場
RJOT 高松空港
RJOM 松山空港
RJOK 高知空港
RJFR 北九州空港
RJFT 熊本空港
RJFU 長崎空港
RJFS 佐賀空港
RJFO 大分空港
RJFM 宮崎空港
RJFK 鹿児島空港
ROIG 石垣島空港
RJTY 横田飛行場
ROTM 普天間飛行場
RODN 嘉手納飛行場